EAL100 PHLI-KLAX
Flight info
| Callsign | EAL100 |
|---|---|
| Flight time | N/A |
| Altitude | 33000 |
| Route | LIH V15 ZIKAB CLUTS R465 CIVIT R585 FLEXX/N0474F350 R585 GITLE ADUMM GALIP R585 AUDIA SNAXX RYDRR2 |
| Aircraft | CONC/H-SDE2E3FGHIRYW/X |
Departure
| Time | 2026-04-23 11:29 |
|---|---|
| Airport | Lihue Airport (PHLI) |
Arrival
| Time | N/A |
|---|---|
| Airport | Los Angeles International Airport (KLAX) |
| Time | Latitude | Longitude | Altitude | Speed | Heading |
|---|---|---|---|---|---|
| 2026-04-23 11:27 | 21.96451 | -159.33588 | 113 ft | 0 kts | 0° |
| 2026-04-23 11:28 | 21.96452 | -159.33588 | 113 ft | 2 kts | 0° |
| 2026-04-23 11:28 | 21.96736 | -159.33588 | 114 ft | 82 kts | 359° |
| 2026-04-23 11:28 | 21.97597 | -159.33595 | 119 ft | 163 kts | 359° |
| 2026-04-23 11:29 | 21.98869 | -159.33574 | 560 ft | 194 kts | 1° |
| 2026-04-23 11:29 | 22.00355 | -159.33618 | 1040 ft | 232 kts | 357° |
| 2026-04-23 11:29 | 22.02087 | -159.33827 | 1545 ft | 264 kts | 346° |
| 2026-04-23 11:29 | 22.03620 | -159.34872 | 2059 ft | 270 kts | 309° |
| 2026-04-23 11:30 | 22.04352 | -159.36737 | 2557 ft | 277 kts | 275° |
| 2026-04-23 11:30 | 22.04002 | -159.38747 | 3025 ft | 285 kts | 241° |
| 2026-04-23 11:30 | 22.02615 | -159.40324 | 3535 ft | 295 kts | 207° |
| 2026-04-23 11:30 | 22.00674 | -159.40895 | 4041 ft | 296 kts | 175° |
| 2026-04-23 11:31 | 21.98755 | -159.40300 | 4631 ft | 281 kts | 143° |
| 2026-04-23 11:31 | 21.97159 | -159.39121 | 5275 ft | 274 kts | 143° |
| 2026-04-23 11:31 | 21.95740 | -159.37875 | 5893 ft | 256 kts | 117° |
| 2026-04-23 11:31 | 21.95116 | -159.36148 | 6565 ft | 247 kts | 101° |
| 2026-04-23 11:32 | 21.94718 | -159.34320 | 7042 ft | 253 kts | 100° |
| 2026-04-23 11:32 | 21.94337 | -159.32478 | 7516 ft | 258 kts | 102° |
| 2026-04-23 11:32 | 21.93718 | -159.30637 | 8012 ft | 263 kts | 114° |
| 2026-04-23 11:32 | 21.92880 | -159.28883 | 8491 ft | 267 kts | 116° |
| 2026-04-23 11:33 | 21.91992 | -159.27086 | 8977 ft | 279 kts | 116° |
| 2026-04-23 11:33 | 21.91060 | -159.25182 | 9469 ft | 293 kts | 116° |
| 2026-04-23 11:33 | 21.90090 | -159.23192 | 9969 ft | 309 kts | 118° |
| 2026-04-23 11:33 | 21.88971 | -159.21143 | 10485 ft | 334 kts | 118° |
| 2026-04-23 11:34 | 21.87736 | -159.18845 | 11031 ft | 379 kts | 118° |
| 2026-04-23 11:34 | 21.86338 | -159.16244 | 11587 ft | 428 kts | 119° |
| 2026-04-23 11:34 | 21.84741 | -159.13277 | 12152 ft | 483 kts | 119° |
| 2026-04-23 11:34 | 21.82959 | -159.09963 | 12721 ft | 544 kts | 119° |
| 2026-04-23 11:35 | 21.80953 | -159.06238 | 13286 ft | 610 kts | 119° |
| 2026-04-23 11:35 | 21.78807 | -159.02266 | 13757 ft | 620 kts | 119° |
| 2026-04-23 11:35 | 21.77053 | -158.97960 | 14296 ft | 627 kts | 103° |
| 2026-04-23 11:35 | 21.76459 | -158.93390 | 14841 ft | 630 kts | 91° |
| 2026-04-23 11:36 | 21.76452 | -158.88647 | 15346 ft | 633 kts | 82° |
| 2026-04-23 11:36 | 21.77507 | -158.84122 | 15897 ft | 632 kts | 67° |
| 2026-04-23 11:36 | 21.79491 | -158.79912 | 16432 ft | 625 kts | 63° |
| 2026-04-23 11:36 | 21.80964 | -158.75543 | 16918 ft | 610 kts | 71° |
| 2026-04-23 11:37 | 21.82270 | -158.71268 | 17406 ft | 609 kts | 71° |
| 2026-04-23 11:37 | 21.83594 | -158.66931 | 17889 ft | 614 kts | 70° |
| 2026-04-23 11:37 | 21.84933 | -158.62549 | 18368 ft | 618 kts | 70° |
| 2026-04-23 11:37 | 21.86269 | -158.58170 | 18843 ft | 620 kts | 70° |
| 2026-04-23 11:38 | 21.87616 | -158.53751 | 19321 ft | 620 kts | 71° |
| 2026-04-23 11:38 | 21.88944 | -158.49387 | 19816 ft | 622 kts | 71° |
| 2026-04-23 11:38 | 21.90269 | -158.45029 | 20262 ft | 610 kts | 71° |
| 2026-04-23 11:38 | 21.91598 | -158.40655 | 20745 ft | 612 kts | 71° |
| 2026-04-23 11:39 | 21.92913 | -158.36320 | 21221 ft | 606 kts | 71° |
| 2026-04-23 11:39 | 21.94214 | -158.32033 | 21696 ft | 611 kts | 71° |
| 2026-04-23 11:39 | 21.95530 | -158.27684 | 22168 ft | 606 kts | 71° |
| 2026-04-23 11:39 | 21.96838 | -158.23363 | 22648 ft | 607 kts | 71° |
| 2026-04-23 11:40 | 21.98134 | -158.19069 | 23118 ft | 613 kts | 71° |
| 2026-04-23 11:40 | 21.99440 | -158.14740 | 23594 ft | 606 kts | 71° |
| 2026-04-23 11:40 | 22.00735 | -158.10446 | 24068 ft | 611 kts | 71° |
| 2026-04-23 11:40 | 22.02047 | -158.06090 | 24549 ft | 603 kts | 71° |
| 2026-04-23 11:41 | 22.03332 | -158.01825 | 25024 ft | 608 kts | 71° |
| 2026-04-23 11:41 | 22.04637 | -157.97484 | 25496 ft | 608 kts | 71° |
| 2026-04-23 11:41 | 22.05926 | -157.93188 | 25964 ft | 597 kts | 71° |
| 2026-04-23 11:41 | 22.07200 | -157.88940 | 26445 ft | 602 kts | 71° |
| 2026-04-23 11:42 | 22.08491 | -157.84634 | 26911 ft | 607 kts | 71° |
| 2026-04-23 11:42 | 22.09791 | -157.80289 | 27385 ft | 613 kts | 70° |
| 2026-04-23 11:42 | 22.11105 | -157.75894 | 27884 ft | 616 kts | 70° |
| 2026-04-23 11:42 | 22.12405 | -157.71542 | 28301 ft | 593 kts | 70° |
| 2026-04-23 11:43 | 22.13652 | -157.67360 | 28795 ft | 591 kts | 70° |
| 2026-04-23 11:43 | 22.14914 | -157.63133 | 29295 ft | 599 kts | 70° |
| 2026-04-23 11:43 | 22.16185 | -157.58864 | 29789 ft | 605 kts | 70° |
| 2026-04-23 11:43 | 22.17481 | -157.54511 | 30275 ft | 610 kts | 70° |
| 2026-04-23 11:44 | 22.18766 | -157.50179 | 30746 ft | 593 kts | 70° |
| 2026-04-23 11:44 | 22.19995 | -157.46042 | 31238 ft | 587 kts | 70° |
| 2026-04-23 11:44 | 22.21248 | -157.41815 | 31740 ft | 593 kts | 70° |
| 2026-04-23 11:44 | 22.22504 | -157.37576 | 32232 ft | 599 kts | 70° |
| 2026-04-23 11:45 | 22.23769 | -157.33299 | 32710 ft | 604 kts | 70° |
| 2026-04-23 11:45 | 22.25049 | -157.28966 | 33205 ft | 594 kts | 70° |
| 2026-04-23 11:45 | 22.26288 | -157.24773 | 33734 ft | 589 kts | 70° |
| 2026-04-23 11:45 | 22.27520 | -157.20598 | 34276 ft | 596 kts | 70° |
| 2026-04-23 11:46 | 22.28792 | -157.16280 | 34818 ft | 602 kts | 70° |
| 2026-04-23 11:46 | 22.30059 | -157.11975 | 35392 ft | 600 kts | 70° |
| 2026-04-23 11:46 | 22.31273 | -157.07837 | 35828 ft | 557 kts | 69° |
| 2026-04-23 11:46 | 22.32425 | -157.03922 | 36396 ft | 553 kts | 69° |
| 2026-04-23 11:47 | 22.33585 | -156.99976 | 36961 ft | 563 kts | 69° |
| 2026-04-23 11:47 | 22.34786 | -156.95882 | 37537 ft | 572 kts | 69° |
| 2026-04-23 11:47 | 22.35986 | -156.91782 | 38108 ft | 580 kts | 69° |
| 2026-04-23 11:47 | 22.37203 | -156.87622 | 38670 ft | 586 kts | 69° |
| 2026-04-23 11:48 | 22.38440 | -156.83388 | 39262 ft | 590 kts | 69° |
| 2026-04-23 11:48 | 22.39655 | -156.79222 | 39834 ft | 583 kts | 69° |
| 2026-04-23 11:48 | 22.40836 | -156.75156 | 40396 ft | 552 kts | 69° |
| 2026-04-23 11:48 | 22.41981 | -156.71240 | 41027 ft | 553 kts | 69° |
| 2026-04-23 11:49 | 22.43143 | -156.67247 | 41700 ft | 553 kts | 69° |
| 2026-04-23 11:49 | 22.44284 | -156.63325 | 42361 ft | 552 kts | 69° |
| 2026-04-23 11:49 | 22.45432 | -156.59372 | 43023 ft | 550 kts | 69° |
| 2026-04-23 11:49 | 22.46571 | -156.55446 | 43685 ft | 546 kts | 69° |
| 2026-04-23 11:50 | 22.47682 | -156.51604 | 44338 ft | 541 kts | 67° |
| 2026-04-23 11:50 | 22.48806 | -156.47722 | 45001 ft | 534 kts | 67° |
| 2026-04-23 11:50 | 22.49919 | -156.43889 | 45009 ft | 540 kts | 68° |
| 2026-04-23 11:50 | 22.51027 | -156.40054 | 45117 ft | 541 kts | 69° |
| 2026-04-23 11:51 | 22.52161 | -156.36133 | 45081 ft | 544 kts | 70° |
| 2026-04-23 11:51 | 22.54414 | -156.28304 | 45101 ft | 551 kts | 67° |
| 2026-04-23 11:52 | 22.56701 | -156.20363 | 45057 ft | 558 kts | 69° |
| 2026-04-23 11:52 | 22.59012 | -156.12312 | 45070 ft | 564 kts | 68° |
| 2026-04-23 11:53 | 22.61340 | -156.04192 | 45077 ft | 571 kts | 69° |
| 2026-04-23 11:53 | 22.63688 | -155.95975 | 45068 ft | 577 kts | 69° |
| 2026-04-23 11:54 | 22.66063 | -155.87656 | 45066 ft | 583 kts | 69° |
| 2026-04-23 11:54 | 22.68464 | -155.79219 | 45079 ft | 587 kts | 68° |
| 2026-04-23 11:55 | 22.70856 | -155.70796 | 45087 ft | 586 kts | 69° |
| 2026-04-23 11:55 | 22.73239 | -155.62387 | 45072 ft | 587 kts | 69° |
| 2026-04-23 11:56 | 22.75619 | -155.53978 | 45041 ft | 587 kts | 69° |
| 2026-04-23 11:56 | 22.78010 | -155.45503 | 45058 ft | 588 kts | 68° |
| 2026-04-23 11:57 | 22.80392 | -155.37048 | 45075 ft | 587 kts | 68° |
| 2026-04-23 11:57 | 22.82756 | -155.28626 | 45054 ft | 587 kts | 69° |
| 2026-04-23 11:58 | 22.85124 | -155.20183 | 45018 ft | 587 kts | 69° |
| 2026-04-23 11:58 | 22.87501 | -155.11685 | 45053 ft | 588 kts | 69° |
| 2026-04-23 11:59 | 22.89854 | -155.03249 | 45071 ft | 588 kts | 69° |
| 2026-04-23 11:59 | 22.92211 | -154.94786 | 45071 ft | 588 kts | 69° |
| 2026-04-23 12:00 | 22.94562 | -154.86325 | 45030 ft | 589 kts | 69° |
| 2026-04-23 12:00 | 22.96912 | -154.77844 | 44998 ft | 590 kts | 69° |
| 2026-04-23 12:00 | 22.98098 | -154.73566 | 44825 ft | 590 kts | 69° |
| 2026-04-23 12:01 | 22.99264 | -154.69342 | 44742 ft | 589 kts | 69° |
| 2026-04-23 12:01 | 23.00660 | -154.65289 | 45258 ft | 567 kts | 54° |
| 2026-04-23 12:01 | 23.02733 | -154.61627 | 44957 ft | 569 kts | 51° |
| 2026-04-23 12:01 | 23.04894 | -154.58049 | 45107 ft | 573 kts | 52° |
| 2026-04-23 12:02 | 23.07086 | -154.54421 | 45129 ft | 572 kts | 51° |
| 2026-04-23 12:02 | 23.11461 | -154.47231 | 45093 ft | 575 kts | 51° |
| 2026-04-23 12:03 | 23.15864 | -154.39990 | 45090 ft | 576 kts | 51° |
| 2026-04-23 12:03 | 23.20281 | -154.32719 | 45097 ft | 577 kts | 51° |
| 2026-04-23 12:04 | 23.24701 | -154.25433 | 45090 ft | 578 kts | 51° |
| 2026-04-23 12:04 | 23.29106 | -154.18156 | 45074 ft | 578 kts | 51° |
| 2026-04-23 12:05 | 23.33502 | -154.10889 | 45081 ft | 578 kts | 51° |
| 2026-04-23 12:05 | 23.37915 | -154.03583 | 45069 ft | 578 kts | 51° |
| 2026-04-23 12:06 | 23.42296 | -153.96318 | 45119 ft | 578 kts | 51° |
| 2026-04-23 12:06 | 23.48883 | -153.85373 | 45086 ft | 577 kts | 51° |
| 2026-04-23 12:07 | 23.53285 | -153.78047 | 45108 ft | 575 kts | 51° |
| 2026-04-23 12:07 | 23.57647 | -153.70781 | 45101 ft | 576 kts | 51° |
| 2026-04-23 12:08 | 23.62029 | -153.63464 | 45113 ft | 577 kts | 51° |
| 2026-04-23 12:08 | 23.66397 | -153.56163 | 45077 ft | 577 kts | 51° |
| 2026-04-23 12:09 | 23.70748 | -153.48880 | 45056 ft | 576 kts | 51° |
| 2026-04-23 12:09 | 23.75111 | -153.41568 | 45072 ft | 577 kts | 51° |
| 2026-04-23 12:10 | 23.79475 | -153.34258 | 45051 ft | 577 kts | 51° |
| 2026-04-23 12:10 | 23.83862 | -153.26929 | 45027 ft | 577 kts | 51° |
| 2026-04-23 12:11 | 23.88242 | -153.19600 | 45029 ft | 579 kts | 51° |
| 2026-04-23 12:11 | 23.92609 | -153.12282 | 45028 ft | 578 kts | 51° |
| 2026-04-23 12:12 | 23.96989 | -153.04932 | 45062 ft | 574 kts | 50° |
| 2026-04-23 12:12 | 24.01350 | -152.97604 | 45076 ft | 576 kts | 51° |
| 2026-04-23 12:13 | 24.05695 | -152.90292 | 45041 ft | 577 kts | 50° |
| 2026-04-23 12:13 | 24.10052 | -152.82950 | 45037 ft | 577 kts | 51° |
| 2026-04-23 12:14 | 24.14401 | -152.75607 | 45079 ft | 576 kts | 50° |
| 2026-04-23 12:14 | 24.18765 | -152.68230 | 45097 ft | 577 kts | 50° |
| 2026-04-23 12:15 | 24.23115 | -152.60864 | 45089 ft | 577 kts | 50° |
| 2026-04-23 12:15 | 24.27456 | -152.53505 | 45067 ft | 577 kts | 50° |
| 2026-04-23 12:16 | 24.31828 | -152.46081 | 45100 ft | 578 kts | 50° |
| 2026-04-23 12:16 | 24.36172 | -152.38690 | 45097 ft | 579 kts | 50° |
| 2026-04-23 12:17 | 24.40526 | -152.31276 | 45055 ft | 579 kts | 51° |
| 2026-04-23 12:17 | 24.44904 | -152.23808 | 45077 ft | 582 kts | 51° |
| 2026-04-23 12:18 | 24.49248 | -152.16385 | 45050 ft | 583 kts | 50° |
| 2026-04-23 12:18 | 24.53597 | -152.08943 | 45044 ft | 582 kts | 50° |
| 2026-04-23 12:19 | 24.57970 | -152.01450 | 45082 ft | 582 kts | 50° |
| 2026-04-23 12:19 | 24.62303 | -151.94016 | 45035 ft | 583 kts | 50° |
| 2026-04-23 12:20 | 24.66671 | -151.86508 | 45090 ft | 582 kts | 50° |
| 2026-04-23 12:20 | 24.71007 | -151.79040 | 45106 ft | 583 kts | 50° |
| 2026-04-23 12:21 | 24.75375 | -151.71509 | 45054 ft | 584 kts | 50° |
| 2026-04-23 12:21 | 24.79701 | -151.64038 | 45074 ft | 581 kts | 50° |
| 2026-04-23 12:22 | 24.84035 | -151.56541 | 45070 ft | 584 kts | 50° |
| 2026-04-23 12:22 | 24.88396 | -151.48985 | 45081 ft | 583 kts | 50° |
| 2026-04-23 12:23 | 24.92749 | -151.41434 | 45058 ft | 585 kts | 50° |
| 2026-04-23 12:23 | 24.97091 | -151.33887 | 45066 ft | 585 kts | 51° |
| 2026-04-23 12:24 | 25.01432 | -151.26331 | 45051 ft | 585 kts | 51° |
| 2026-04-23 12:24 | 25.05741 | -151.18817 | 45068 ft | 584 kts | 51° |
| 2026-04-23 12:25 | 25.10068 | -151.11264 | 45066 ft | 585 kts | 51° |
| 2026-04-23 12:25 | 25.14407 | -151.03671 | 45055 ft | 586 kts | 50° |
| 2026-04-23 12:26 | 25.18738 | -150.96083 | 45090 ft | 585 kts | 50° |
| 2026-04-23 12:26 | 25.23073 | -150.88483 | 45054 ft | 587 kts | 51° |
| 2026-04-23 12:27 | 25.27407 | -150.80864 | 45063 ft | 587 kts | 51° |
| 2026-04-23 12:27 | 25.31706 | -150.73292 | 45089 ft | 585 kts | 50° |
| 2026-04-23 12:28 | 25.36039 | -150.65659 | 45101 ft | 583 kts | 51° |
| 2026-04-23 12:28 | 25.40333 | -150.58072 | 45063 ft | 586 kts | 51° |
| 2026-04-23 12:29 | 25.44642 | -150.50450 | 45120 ft | 585 kts | 51° |
| 2026-04-23 12:29 | 25.48947 | -150.42827 | 45072 ft | 587 kts | 51° |
| 2026-04-23 12:30 | 25.53220 | -150.35242 | 45095 ft | 584 kts | 51° |
| 2026-04-23 12:30 | 25.57507 | -150.27623 | 45082 ft | 587 kts | 51° |
| 2026-04-23 12:31 | 25.61792 | -150.19994 | 45091 ft | 584 kts | 51° |
| 2026-04-23 12:31 | 25.66098 | -150.12312 | 45072 ft | 586 kts | 51° |
| 2026-04-23 12:32 | 25.70380 | -150.04662 | 45044 ft | 587 kts | 51° |
| 2026-04-23 12:32 | 25.74663 | -149.96997 | 45117 ft | 585 kts | 51° |
| 2026-04-23 12:33 | 25.78935 | -149.89345 | 45115 ft | 585 kts | 51° |
| 2026-04-23 12:33 | 25.83236 | -149.81621 | 45078 ft | 586 kts | 51° |
| 2026-04-23 12:34 | 25.87500 | -149.73955 | 45157 ft | 583 kts | 52° |
| 2026-04-23 12:34 | 25.89622 | -149.70131 | 45496 ft | 582 kts | 51° |
| 2026-04-23 12:34 | 25.91724 | -149.66345 | 45812 ft | 581 kts | 52° |
| 2026-04-23 12:35 | 25.93852 | -149.62508 | 46151 ft | 579 kts | 51° |
| 2026-04-23 12:35 | 25.95955 | -149.58716 | 46472 ft | 577 kts | 52° |
| 2026-04-23 12:35 | 25.98040 | -149.54945 | 46802 ft | 574 kts | 51° |
| 2026-04-23 12:35 | 26.00124 | -149.51183 | 47124 ft | 571 kts | 52° |
| 2026-04-23 12:36 | 26.02158 | -149.47499 | 47446 ft | 566 kts | 53° |
| 2026-04-23 12:36 | 26.04211 | -149.43779 | 47774 ft | 561 kts | 51° |
| 2026-04-23 12:36 | 26.06235 | -149.40112 | 48103 ft | 555 kts | 53° |
| 2026-04-23 12:36 | 26.08251 | -149.36450 | 48444 ft | 548 kts | 51° |
| 2026-04-23 12:37 | 26.10226 | -149.32869 | 48764 ft | 541 kts | 53° |
| 2026-04-23 12:37 | 26.12167 | -149.29344 | 49110 ft | 531 kts | 53° |
| 2026-04-23 12:37 | 26.14055 | -149.25908 | 49441 ft | 519 kts | 51° |
| 2026-04-23 12:37 | 26.15900 | -149.22540 | 49782 ft | 507 kts | 49° |
| 2026-04-23 12:38 | 26.17711 | -149.19249 | 50125 ft | 492 kts | 55° |
| 2026-04-23 12:38 | 26.19457 | -149.16077 | 50449 ft | 473 kts | 56° |
| 2026-04-23 12:38 | 26.22827 | -149.09930 | 49728 ft | 467 kts | 57° |
| 2026-04-23 12:39 | 26.24523 | -149.06833 | 48754 ft | 474 kts | 50° |
| 2026-04-23 12:39 | 26.26242 | -149.03677 | 47994 ft | 478 kts | 49° |
| 2026-04-23 12:39 | 26.27957 | -149.00548 | 47760 ft | 471 kts | 56° |
| 2026-04-23 12:39 | 26.29622 | -148.97496 | 47911 ft | 455 kts | 49° |
| 2026-04-23 12:40 | 26.31241 | -148.94524 | 47985 ft | 444 kts | 50° |
| 2026-04-23 12:40 | 26.32823 | -148.91649 | 47637 ft | 441 kts | 54° |
| 2026-04-23 12:40 | 26.34420 | -148.88710 | 46896 ft | 446 kts | 46° |
| 2026-04-23 12:40 | 26.36053 | -148.85722 | 46131 ft | 452 kts | 54° |
| 2026-04-23 12:41 | 26.37664 | -148.82764 | 45736 ft | 448 kts | 51° |
| 2026-04-23 12:41 | 26.39264 | -148.79803 | 45715 ft | 437 kts | 46° |
| 2026-04-23 12:41 | 26.42370 | -148.74116 | 45276 ft | 429 kts | 47° |
| 2026-04-23 12:42 | 26.43916 | -148.71263 | 44866 ft | 429 kts | 49° |
| 2026-04-23 12:42 | 26.45459 | -148.68439 | 44515 ft | 426 kts | 54° |
| 2026-04-23 12:42 | 26.46964 | -148.65648 | 44288 ft | 421 kts | 45° |
| 2026-04-23 12:42 | 26.48584 | -148.62779 | 41326 ft | 505 kts | 50° |
| 2026-04-23 12:43 | 26.50575 | -148.59349 | 34994 ft | 612 kts | 51° |
| 2026-04-23 12:43 | 26.52881 | -148.55545 | 29262 ft | 661 kts | 51° |
| 2026-04-23 12:43 | 26.55622 | -148.51257 | 27970 ft | 684 kts | 52° |
| 2026-04-23 12:43 | 26.57828 | -148.46719 | 30290 ft | 663 kts | 62° |
| 2026-04-23 12:44 | 26.59686 | -148.42128 | 31998 ft | 663 kts | 62° |
| 2026-04-23 12:44 | 26.61709 | -148.37297 | 30185 ft | 715 kts | 58° |
| 2026-04-23 12:44 | 26.64610 | -148.32977 | 30021 ft | 704 kts | 45° |
| 2026-04-23 12:44 | 26.67419 | -148.28404 | 30309 ft | 723 kts | 60° |
| 2026-04-23 12:45 | 26.69764 | -148.23434 | 30596 ft | 735 kts | 55° |
| 2026-04-23 12:45 | 26.72430 | -148.18466 | 30878 ft | 756 kts | 56° |
| 2026-04-23 12:45 | 26.75198 | -148.13316 | 31140 ft | 783 kts | 56° |
| 2026-04-23 12:45 | 26.78054 | -148.07991 | 31400 ft | 815 kts | 56° |
| 2026-04-23 12:46 | 26.81024 | -148.02443 | 31663 ft | 852 kts | 56° |
| 2026-04-23 12:46 | 26.84124 | -147.96646 | 32036 ft | 893 kts | 56° |
| 2026-04-23 12:46 | 26.87387 | -147.90530 | 32544 ft | 940 kts | 56° |
| 2026-04-23 12:46 | 26.90794 | -147.84142 | 33051 ft | 996 kts | 57° |
| 2026-04-23 12:47 | 26.94467 | -147.77240 | 33566 ft | 1067 kts | 57° |
| 2026-04-23 12:47 | 26.98383 | -147.69875 | 34100 ft | 1160 kts | 57° |
| 2026-04-23 12:47 | 27.02724 | -147.61699 | 34648 ft | 1297 kts | 57° |
| 2026-04-23 12:47 | 27.07624 | -147.52434 | 35158 ft | 1373 kts | 57° |
| 2026-04-23 12:48 | 27.12494 | -147.43222 | 35705 ft | 1416 kts | 57° |
| 2026-04-23 12:48 | 27.17620 | -147.33491 | 36239 ft | 1452 kts | 58° |
| 2026-04-23 12:48 | 27.22708 | -147.23572 | 36759 ft | 1492 kts | 62° |
| 2026-04-23 12:48 | 27.27168 | -147.13127 | 37410 ft | 1510 kts | 62° |
| 2026-04-23 12:49 | 27.32252 | -147.02774 | 38045 ft | 1527 kts | 59° |
| 2026-04-23 12:49 | 27.36922 | -146.91931 | 38704 ft | 1554 kts | 67° |
| 2026-04-23 12:49 | 27.40989 | -146.80591 | 39334 ft | 1571 kts | 63° |
| 2026-04-23 12:49 | 27.46038 | -146.69687 | 40108 ft | 1592 kts | 58° |
| 2026-04-23 12:50 | 27.51385 | -146.58684 | 40673 ft | 1601 kts | 64° |
| 2026-04-23 12:50 | 27.55578 | -146.47304 | 41448 ft | 1598 kts | 67° |
| 2026-04-23 12:50 | 27.60061 | -146.35736 | 42062 ft | 1600 kts | 60° |
| 2026-04-23 12:50 | 27.65453 | -146.24858 | 42764 ft | 1595 kts | 60° |
| 2026-04-23 12:51 | 27.70183 | -146.13834 | 43421 ft | 1576 kts | 67° |
| 2026-04-23 12:51 | 27.74284 | -146.02184 | 44094 ft | 1569 kts | 63° |
| 2026-04-23 12:51 | 27.79259 | -145.91211 | 44845 ft | 1594 kts | 59° |
| 2026-04-23 12:51 | 27.84320 | -145.80225 | 45360 ft | 1589 kts | 65° |
| 2026-04-23 12:52 | 27.88429 | -145.68721 | 46200 ft | 1594 kts | 65° |
| 2026-04-23 12:52 | 27.93238 | -145.57521 | 46969 ft | 1562 kts | 59° |
| 2026-04-23 12:52 | 27.98271 | -145.46549 | 47642 ft | 1567 kts | 65° |
| 2026-04-23 12:52 | 28.02393 | -145.35056 | 48516 ft | 1569 kts | 65° |
| 2026-04-23 12:53 | 28.07112 | -145.24155 | 49290 ft | 1563 kts | 60° |
| 2026-04-23 12:53 | 28.12036 | -145.13069 | 49956 ft | 1561 kts | 67° |
| 2026-04-23 12:53 | 28.16062 | -145.01717 | 50806 ft | 1562 kts | 64° |
| 2026-04-23 12:53 | 28.20938 | -144.90733 | 51706 ft | 1571 kts | 61° |
| 2026-04-23 12:54 | 28.25566 | -144.79744 | 52406 ft | 1553 kts | 68° |
| 2026-04-23 12:54 | 28.29682 | -144.68227 | 53222 ft | 1584 kts | 62° |
| 2026-04-23 12:54 | 28.34630 | -144.57332 | 54128 ft | 1536 kts | 63° |
| 2026-04-23 12:54 | 28.38934 | -144.46274 | 55024 ft | 1553 kts | 68° |
| 2026-04-23 12:55 | 28.43266 | -144.34941 | 55670 ft | 1552 kts | 60° |
| 2026-04-23 12:55 | 28.48102 | -144.24112 | 56425 ft | 1552 kts | 67° |
| 2026-04-23 12:55 | 28.52207 | -144.12743 | 57190 ft | 1540 kts | 65° |
| 2026-04-23 12:55 | 28.56775 | -144.01993 | 57945 ft | 1536 kts | 63° |
| 2026-04-23 12:56 | 28.61188 | -143.90804 | 58643 ft | 1571 kts | 68° |
| 2026-04-23 12:56 | 28.65530 | -143.79611 | 59348 ft | 1563 kts | 62° |
| 2026-04-23 12:56 | 28.70097 | -143.68414 | 60109 ft | 1563 kts | 66° |
| 2026-04-23 12:56 | 28.74457 | -143.57106 | 60090 ft | 1565 kts | 64° |
| 2026-04-23 12:57 | 28.78916 | -143.45923 | 60260 ft | 1564 kts | 65° |
| 2026-04-23 12:57 | 28.83295 | -143.34732 | 59980 ft | 1525 kts | 65° |
| 2026-04-23 12:57 | 28.87597 | -143.23750 | 60334 ft | 1536 kts | 65° |
| 2026-04-23 12:57 | 28.91922 | -143.12685 | 59957 ft | 1527 kts | 65° |
| 2026-04-23 12:58 | 28.96252 | -143.01550 | 60305 ft | 1540 kts | 65° |
| 2026-04-23 12:58 | 29.00542 | -142.90501 | 60025 ft | 1526 kts | 65° |
| 2026-04-23 12:58 | 29.04818 | -142.79456 | 60212 ft | 1541 kts | 65° |
| 2026-04-23 12:58 | 29.09102 | -142.68349 | 60166 ft | 1529 kts | 65° |
| 2026-04-23 12:59 | 29.17639 | -142.46126 | 60328 ft | 1534 kts | 65° |
| 2026-04-23 12:59 | 29.21925 | -142.34918 | 60133 ft | 1538 kts | 66° |
| 2026-04-23 12:59 | 29.26184 | -142.23747 | 60243 ft | 1536 kts | 66° |
| 2026-04-23 13:00 | 29.34633 | -142.01486 | 60202 ft | 1536 kts | 66° |
| 2026-04-23 13:00 | 29.43128 | -141.78967 | 60196 ft | 1536 kts | 66° |
| 2026-04-23 13:01 | 29.51517 | -141.56593 | 60217 ft | 1538 kts | 66° |
| 2026-04-23 13:01 | 29.59906 | -141.34080 | 60240 ft | 1540 kts | 66° |
| 2026-04-23 13:02 | 29.68221 | -141.11627 | 60258 ft | 1542 kts | 66° |
| 2026-04-23 13:02 | 29.76549 | -140.89000 | 60256 ft | 1543 kts | 66° |
| 2026-04-23 13:03 | 29.84880 | -140.66217 | 60239 ft | 1543 kts | 66° |
| 2026-04-23 13:03 | 29.93106 | -140.43571 | 60211 ft | 1543 kts | 68° |
| 2026-04-23 13:04 | 29.96951 | -140.32077 | 60352 ft | 1547 kts | 67° |
| 2026-04-23 13:04 | 30.00885 | -140.20560 | 60394 ft | 1552 kts | 70° |
| 2026-04-23 13:04 | 30.08419 | -139.97395 | 60392 ft | 1552 kts | 69° |
| 2026-04-23 13:05 | 30.15975 | -139.74097 | 60361 ft | 1550 kts | 69° |
| 2026-04-23 13:05 | 30.23467 | -139.50847 | 60311 ft | 1549 kts | 69° |
| 2026-04-23 13:06 | 30.34594 | -139.16011 | 60245 ft | 1545 kts | 70° |
| 2026-04-23 13:07 | 30.41965 | -138.92729 | 60227 ft | 1545 kts | 70° |
| 2026-04-23 13:07 | 30.49287 | -138.69437 | 60238 ft | 1545 kts | 70° |
| 2026-04-23 13:08 | 30.56572 | -138.46094 | 60254 ft | 1545 kts | 70° |
| 2026-04-23 13:08 | 30.63786 | -138.22810 | 60248 ft | 1543 kts | 70° |
| 2026-04-23 13:09 | 30.70971 | -137.99452 | 60239 ft | 1543 kts | 70° |
| 2026-04-23 13:09 | 30.78127 | -137.76016 | 60271 ft | 1544 kts | 70° |
| 2026-04-23 13:10 | 30.85231 | -137.52577 | 60310 ft | 1544 kts | 70° |
| 2026-04-23 13:10 | 30.92302 | -137.29077 | 60393 ft | 1547 kts | 71° |
| 2026-04-23 13:11 | 30.99351 | -137.05467 | 60460 ft | 1551 kts | 71° |
| 2026-04-23 13:11 | 31.06345 | -136.81863 | 60454 ft | 1552 kts | 71° |
| 2026-04-23 13:12 | 31.13315 | -136.58164 | 60413 ft | 1552 kts | 71° |
| 2026-04-23 13:12 | 31.20229 | -136.34473 | 60382 ft | 1552 kts | 71° |
| 2026-04-23 13:13 | 31.27142 | -136.10597 | 60354 ft | 1553 kts | 71° |
| 2026-04-23 13:13 | 31.34001 | -135.86722 | 60344 ft | 1554 kts | 71° |
| 2026-04-23 13:14 | 31.40770 | -135.62970 | 60334 ft | 1553 kts | 71° |
| 2026-04-23 13:14 | 31.47536 | -135.39046 | 60330 ft | 1554 kts | 71° |
| 2026-04-23 13:15 | 31.54261 | -135.15071 | 60316 ft | 1555 kts | 71° |
| 2026-04-23 13:15 | 31.60951 | -134.91025 | 60328 ft | 1556 kts | 71° |
| 2026-04-23 13:16 | 31.67586 | -134.66981 | 60360 ft | 1557 kts | 71° |
| 2026-04-23 13:16 | 31.74152 | -134.42990 | 60390 ft | 1559 kts | 71° |
| 2026-04-23 13:17 | 31.80701 | -134.18861 | 60404 ft | 1560 kts | 72° |
| 2026-04-23 13:17 | 31.87252 | -133.94525 | 60389 ft | 1561 kts | 72° |
| 2026-04-23 13:18 | 31.93683 | -133.70427 | 60325 ft | 1559 kts | 72° |
| 2026-04-23 13:18 | 32.00107 | -133.46149 | 60233 ft | 1559 kts | 72° |
| 2026-04-23 13:19 | 32.06464 | -133.21915 | 60168 ft | 1556 kts | 72° |
| 2026-04-23 13:19 | 32.12809 | -132.97522 | 60095 ft | 1554 kts | 72° |
| 2026-04-23 13:20 | 32.19796 | -132.73521 | 60484 ft | 1577 kts | 63° |
| 2026-04-23 13:20 | 32.24708 | -132.62059 | 60744 ft | 1591 kts | 57° |
| 2026-04-23 13:20 | 32.30735 | -132.50908 | 61075 ft | 1600 kts | 54° |
| 2026-04-23 13:20 | 32.36579 | -132.39838 | 61208 ft | 1606 kts | 62° |
| 2026-04-23 13:21 | 32.41412 | -132.27988 | 61640 ft | 1625 kts | 68° |
| 2026-04-23 13:21 | 32.45661 | -132.15718 | 61715 ft | 1612 kts | 63° |
| 2026-04-23 13:21 | 32.50791 | -132.03976 | 62138 ft | 1621 kts | 57° |
| 2026-04-23 13:21 | 32.56617 | -131.92651 | 62249 ft | 1614 kts | 62° |
| 2026-04-23 13:22 | 32.61635 | -131.80733 | 62714 ft | 1627 kts | 67° |
| 2026-04-23 13:22 | 32.71915 | -131.56796 | 63284 ft | 1649 kts | 60° |
| 2026-04-23 13:22 | 32.77155 | -131.44615 | 63414 ft | 1658 kts | 66° |
| 2026-04-23 13:23 | 32.81949 | -131.32274 | 63644 ft | 1669 kts | 63° |
| 2026-04-23 13:23 | 32.92535 | -131.07878 | 63601 ft | 1649 kts | 61° |
| 2026-04-23 13:23 | 32.97860 | -130.95938 | 63714 ft | 1646 kts | 63° |
| 2026-04-23 13:24 | 33.02712 | -130.83714 | 63824 ft | 1656 kts | 63° |
| 2026-04-23 13:24 | 33.07957 | -130.71568 | 63807 ft | 1638 kts | 62° |
| 2026-04-23 13:24 | 33.12933 | -130.59499 | 63735 ft | 1615 kts | 63° |
| 2026-04-23 13:25 | 33.22897 | -130.35605 | 63577 ft | 1613 kts | 63° |
| 2026-04-23 13:25 | 33.27845 | -130.23711 | 63429 ft | 1608 kts | 63° |
| 2026-04-23 13:25 | 33.32754 | -130.11803 | 63281 ft | 1602 kts | 63° |
| 2026-04-23 13:25 | 33.37663 | -129.99881 | 63141 ft | 1596 kts | 63° |
| 2026-04-23 13:26 | 33.42521 | -129.88036 | 62993 ft | 1591 kts | 63° |
| 2026-04-23 13:26 | 33.47340 | -129.76242 | 62859 ft | 1586 kts | 63° |
| 2026-04-23 13:26 | 33.52155 | -129.64423 | 62713 ft | 1581 kts | 63° |
| 2026-04-23 13:26 | 33.56879 | -129.52783 | 62581 ft | 1576 kts | 63° |
| 2026-04-23 13:27 | 33.61662 | -129.40959 | 62433 ft | 1571 kts | 63° |
| 2026-04-23 13:27 | 33.66396 | -129.29215 | 62291 ft | 1566 kts | 64° |
| 2026-04-23 13:27 | 33.71052 | -129.17627 | 62137 ft | 1560 kts | 64° |
| 2026-04-23 13:27 | 33.75762 | -129.05861 | 61987 ft | 1554 kts | 64° |
| 2026-04-23 13:28 | 33.79924 | -128.94029 | 62050 ft | 1555 kts | 72° |
| 2026-04-23 13:28 | 33.83044 | -128.81464 | 62297 ft | 1570 kts | 78° |
| 2026-04-23 13:28 | 33.85152 | -128.68814 | 62437 ft | 1575 kts | 77° |
| 2026-04-23 13:29 | 33.89754 | -128.43135 | 62654 ft | 1581 kts | 84° |
| 2026-04-23 13:29 | 33.90670 | -128.30008 | 62894 ft | 1592 kts | 90° |
| 2026-04-23 13:29 | 33.90458 | -128.16602 | 63086 ft | 1597 kts | 96° |
| 2026-04-23 13:29 | 33.89130 | -128.03546 | 63294 ft | 1605 kts | 101° |
| 2026-04-23 13:30 | 33.87447 | -127.90190 | 63293 ft | 1606 kts | 94° |
| 2026-04-23 13:30 | 33.86924 | -127.76961 | 63638 ft | 1618 kts | 88° |
| 2026-04-23 13:30 | 33.87468 | -127.63345 | 63746 ft | 1623 kts | 82° |
| 2026-04-23 13:30 | 33.89109 | -127.50079 | 63939 ft | 1631 kts | 77° |
| 2026-04-23 13:31 | 33.91124 | -127.36699 | 63867 ft | 1629 kts | 84° |
| 2026-04-23 13:31 | 33.92004 | -127.23101 | 64077 ft | 1637 kts | 90° |
| 2026-04-23 13:31 | 33.91817 | -127.09527 | 63802 ft | 1626 kts | 96° |
| 2026-04-23 13:32 | 33.89386 | -126.82819 | 63492 ft | 1614 kts | 90° |
| 2026-04-23 13:32 | 33.90277 | -126.55907 | 63175 ft | 1605 kts | 84° |
| 2026-04-23 13:32 | 33.91194 | -126.42674 | 62731 ft | 1586 kts | 89° |
| 2026-04-23 13:33 | 33.91375 | -126.29525 | 62542 ft | 1582 kts | 91° |
| 2026-04-23 13:33 | 33.91206 | -126.16463 | 62032 ft | 1564 kts | 91° |
| 2026-04-23 13:33 | 33.91514 | -126.03387 | 61835 ft | 1555 kts | 88° |
| 2026-04-23 13:33 | 33.91528 | -125.90474 | 61572 ft | 1548 kts | 91° |
| 2026-04-23 13:34 | 33.91599 | -125.77654 | 61255 ft | 1537 kts | 89° |
| 2026-04-23 13:34 | 33.91641 | -125.64872 | 60847 ft | 1521 kts | 90° |
| 2026-04-23 13:34 | 33.91690 | -125.52284 | 60703 ft | 1516 kts | 90° |
| 2026-04-23 13:34 | 33.91698 | -125.39593 | 60461 ft | 1509 kts | 90° |
| 2026-04-23 13:35 | 33.91714 | -125.27186 | 60260 ft | 1502 kts | 90° |
| 2026-04-23 13:35 | 33.91707 | -125.14581 | 60261 ft | 1513 kts | 90° |
| 2026-04-23 13:35 | 33.91687 | -125.01959 | 60181 ft | 1533 kts | 90° |
| 2026-04-23 13:35 | 33.92305 | -124.89033 | 60517 ft | 1542 kts | 83° |
| 2026-04-23 13:36 | 33.93901 | -124.76502 | 60218 ft | 1535 kts | 76° |
| 2026-04-23 13:36 | 33.96727 | -124.63992 | 60553 ft | 1549 kts | 72° |
| 2026-04-23 13:36 | 33.99486 | -124.51635 | 60268 ft | 1531 kts | 82° |
| 2026-04-23 13:36 | 34.01264 | -124.39036 | 60313 ft | 1548 kts | 76° |
| 2026-04-23 13:37 | 34.04051 | -124.26540 | 60657 ft | 1545 kts | 75° |
| 2026-04-23 13:37 | 34.06472 | -124.14059 | 60549 ft | 1546 kts | 83° |
| 2026-04-23 13:37 | 34.08154 | -124.01286 | 60713 ft | 1554 kts | 77° |
| 2026-04-23 13:37 | 34.10805 | -123.88641 | 60901 ft | 1558 kts | 74° |
| 2026-04-23 13:38 | 34.13300 | -123.76060 | 60835 ft | 1556 kts | 82° |
| 2026-04-23 13:38 | 34.15080 | -123.63302 | 60956 ft | 1563 kts | 76° |
| 2026-04-23 13:38 | 34.17739 | -123.50561 | 61049 ft | 1565 kts | 77° |
| 2026-04-23 13:39 | 34.21987 | -123.25232 | 60978 ft | 1565 kts | 76° |
| 2026-04-23 13:39 | 34.24163 | -123.12509 | 60963 ft | 1544 kts | 84° |
| 2026-04-23 13:39 | 34.25244 | -123.00011 | 60442 ft | 1442 kts | 88° |
| 2026-04-23 13:39 | 34.25249 | -122.88509 | 59367 ft | 1333 kts | 96° |
| 2026-04-23 13:40 | 34.24169 | -122.77836 | 58354 ft | 1237 kts | 103° |
| 2026-04-23 13:40 | 34.22598 | -122.68093 | 57268 ft | 1152 kts | 96° |
| 2026-04-23 13:40 | 34.22103 | -122.58894 | 56284 ft | 1070 kts | 88° |
| 2026-04-23 13:40 | 34.22366 | -122.50232 | 55127 ft | 997 kts | 93° |
| 2026-04-23 13:41 | 34.21849 | -122.42222 | 54054 ft | 926 kts | 95° |
| 2026-04-23 13:41 | 34.21467 | -122.34745 | 52736 ft | 872 kts | 94° |
| 2026-04-23 13:41 | 34.21114 | -122.27640 | 51390 ft | 834 kts | 95° |
| 2026-04-23 13:41 | 34.20777 | -122.20900 | 50063 ft | 785 kts | 95° |
| 2026-04-23 13:42 | 34.20457 | -122.14578 | 48718 ft | 737 kts | 95° |
| 2026-04-23 13:42 | 34.20150 | -122.08584 | 47373 ft | 688 kts | 95° |
| 2026-04-23 13:42 | 34.19868 | -122.03091 | 46067 ft | 651 kts | 95° |
| 2026-04-23 13:42 | 34.19586 | -121.97686 | 44808 ft | 655 kts | 95° |
| 2026-04-23 13:43 | 34.19294 | -121.92230 | 43631 ft | 646 kts | 95° |
| 2026-04-23 13:43 | 34.19017 | -121.86923 | 42451 ft | 630 kts | 95° |
| 2026-04-23 13:43 | 34.18740 | -121.81715 | 41190 ft | 614 kts | 95° |
| 2026-04-23 13:43 | 34.18468 | -121.76676 | 39842 ft | 606 kts | 95° |
| 2026-04-23 13:44 | 34.18190 | -121.71627 | 38348 ft | 609 kts | 95° |
| 2026-04-23 13:44 | 34.17913 | -121.66564 | 36876 ft | 614 kts | 95° |